Time;durP1;ratioP1;P1;durP2;ratioP2;P2;SDS_P1;SDS_P2;PMS_P1;PMS_P2;Temp;Humidity;BMP_temperature;BMP_pressure;BME280_temperature;BME280_humidity;BME280_pressure;Samples;Min_cycle;Max_cycle;Signal;HPM_P1;HPM_P2
2023/10/13 00:01:07;;;;;;;22.95;9.13;;;;;;;;;;4996039;28;20536;-65
2023/10/13 00:03:33;;;;;;;19.63;7.95;;;;;;;;;;4995617;28;20065;-65
2023/10/13 00:06:03;;;;;;;19.25;9.05;;;;;;;;;;4995723;28;20046;-65
2023/10/13 00:08:28;;;;;;;20.15;9.02;;;;;;;;;;4995627;28;20037;-65
2023/10/13 00:10:59;;;;;;;20.27;9.05;;;;;;;;;;4995513;28;20494;-65
2023/10/13 00:13:26;;;;;;;15.40;8.60;;;;;;;;;;4995908;28;20531;-65
2023/10/13 00:15:57;;;;;;;16.80;8.32;;;;;;;;;;4995558;28;20438;-65
2023/10/13 00:18:23;;;;;;;14.55;8.15;;;;;;;;;;4995814;28;20027;-66
2023/10/13 00:20:49;;;;;;;18.55;8.93;;;;;;;;;;4995527;28;20027;-65
2023/10/13 00:23:16;;;;;;;17.65;7.75;;;;;;;;;;4995415;28;20430;-65
2023/10/13 00:25:50;;;;;;;20.20;7.20;;;;;;;;;;4995299;28;20565;-65
2023/10/13 00:28:23;;;;;;;17.75;8.23;;;;;;;;;;4995429;28;20113;-66
2023/10/13 00:30:51;;;;;;;20.48;8.13;;;;;;;;;;4995377;28;20026;-65
2023/10/13 00:33:19;;;;;;;20.35;7.70;;;;;;;;;;4995597;28;20419;-66
2023/10/13 00:35:47;;;;;;;19.08;7.68;;;;;;;;;;4995302;28;20382;-66
2023/10/13 00:38:23;;;;;;;16.45;7.65;;;;;;;;;;4995077;28;20026;-67
2023/10/13 00:40:54;;;;;;;16.65;7.72;;;;;;;;;;4995361;28;20034;-66
2023/10/13 00:45:54;;;;;;;19.55;8.75;;;;;;;;;;4995036;28;20791;-66
2023/10/13 00:48:33;;;;;;;20.88;7.95;;;;;;;;;;4994975;28;20026;-67
2023/10/13 00:51:02;;;;;;;19.98;7.88;;;;;;;;;;4995195;28;20471;-66
2023/10/13 00:53:28;;;;;;;23.20;7.72;;;;;;;;;;4994419;28;20109;-66
2023/10/13 00:55:56;;;;;;;20.40;7.82;;;;;;;;;;4994412;28;20015;-67
2023/10/13 00:58:22;;;;;;;17.27;7.35;;;;;;;;;;4994362;28;20038;-67
2023/10/13 01:00:56;;;;;;;16.13;7.35;;;;;;;;;;4994492;28;20030;-67
2023/10/13 01:03:26;;;;;;;21.02;8.45;;;;;;;;;;4994117;28;20519;-66
2023/10/13 01:05:54;;;;;;;24.15;8.05;;;;;;;;;;4994261;28;20029;-67
2023/10/13 01:08:30;;;;;;;23.75;8.18;;;;;;;;;;4993930;28;20037;-67
2023/10/13 01:10:58;;;;;;;18.15;7.65;;;;;;;;;;4986761;28;20053;-67
2023/10/13 01:13:24;;;;;;;20.60;7.40;;;;;;;;;;4994175;28;20018;-67
2023/10/13 01:15:49;;;;;;;22.05;8.02;;;;;;;;;;4994092;28;20018;-67
2023/10/13 01:18:16;;;;;;;17.08;8.20;;;;;;;;;;4994119;28;20030;-67
2023/10/13 01:20:52;;;;;;;15.27;7.60;;;;;;;;;;4994287;28;20077;-67
2023/10/13 01:23:23;;;;;;;16.77;7.70;;;;;;;;;;4993949;28;20030;-67
2023/10/13 01:25:49;;;;;;;16.55;7.07;;;;;;;;;;4993897;28;20036;-67
2023/10/13 01:28:16;;;;;;;19.35;8.02;;;;;;;;;;4993782;28;20030;-66
2023/10/13 01:30:46;;;;;;;16.70;7.03;;;;;;;;;;4994085;28;20471;-67
2023/10/13 01:33:11;;;;;;;16.70;6.72;;;;;;;;;;4993660;28;20022;-67
2023/10/13 01:35:42;;;;;;;18.85;7.32;;;;;;;;;;4994042;28;20069;-67
2023/10/13 01:38:07;;;;;;;27.98;7.88;;;;;;;;;;4994054;28;20371;-67
2023/10/13 01:40:34;;;;;;;18.75;7.18;;;;;;;;;;4993595;28;20033;-67
2023/10/13 01:43:00;;;;;;;14.45;6.68;;;;;;;;;;4993790;28;20055;-65
2023/10/13 01:45:28;;;;;;;17.13;6.70;;;;;;;;;;4993649;28;20108;-66
2023/10/13 01:47:54;;;;;;;18.40;7.22;;;;;;;;;;4993425;28;20026;-66
2023/10/13 01:50:29;;;;;;;23.10;7.93;;;;;;;;;;4993580;28;20141;-65
2023/10/13 01:53:11;;;;;;;18.85;6.85;;;;;;;;;;4993372;28;20026;-65
2023/10/13 01:55:43;;;;;;;21.75;7.55;;;;;;;;;;4993951;28;20080;-65
2023/10/13 01:58:15;;;;;;;17.40;7.50;;;;;;;;;;4993332;28;20627;-65
2023/10/13 02:00:41;;;;;;;;;;;;;;;;;;4994206;28;20042;-66
2023/10/13 02:03:14;;;;;;;14.48;7.65;;;;;;;;;;4993201;28;19909;-65
2023/10/13 02:05:39;;;;;;;14.68;8.30;;;;;;;;;;4993563;28;20025;-65
2023/10/13 02:08:05;;;;;;;12.85;8.35;;;;;;;;;;4993205;28;20022;-65
2023/10/13 02:10:31;;;;;;;17.63;7.15;;;;;;;;;;4993274;28;20046;-65
2023/10/13 02:12:56;;;;;;;12.38;7.57;;;;;;;;;;4993680;28;20022;-66
2023/10/13 02:15:22;;;;;;;16.20;7.87;;;;;;;;;;4993068;28;20474;-66
2023/10/13 02:17:51;;;;;;;17.35;7.88;;;;;;;;;;4993640;28;20077;-65
2023/10/13 02:20:18;;;;;;;19.02;8.10;;;;;;;;;;4993574;28;20030;-66
2023/10/13 02:22:49;;;;;;;15.93;8.27;;;;;;;;;;4994856;28;20042;-65
2023/10/13 02:25:34;;;;;;;19.45;9.45;;;;;;;;;;4997409;28;20026;-65
2023/10/13 02:27:59;;;;;;;19.17;7.70;;;;;;;;;;4997406;28;20518;-65
2023/10/13 02:30:25;;;;;;;13.50;7.53;;;;;;;;;;4996887;28;20030;-65
2023/10/13 02:32:50;;;;;;;14.88;8.02;;;;;;;;;;4997287;28;20018;-65
2023/10/13 02:35:18;;;;;;;18.80;8.00;;;;;;;;;;4989611;28;20667;-65
2023/10/13 02:37:44;;;;;;;22.27;9.10;;;;;;;;;;4997061;28;20018;-65
2023/10/13 02:40:10;;;;;;;16.45;8.32;;;;;;;;;;4996575;28;20030;-66
2023/10/13 02:42:36;;;;;;;26.85;8.63;;;;;;;;;;4996954;28;20041;-65
2023/10/13 02:45:03;;;;;;;17.58;8.35;;;;;;;;;;4997279;28;20018;-65
2023/10/13 02:47:31;;;;;;;18.95;8.70;;;;;;;;;;4997169;28;20026;-65
2023/10/13 02:50:00;;;;;;;18.00;7.63;;;;;;;;;;4997400;28;20101;-65
2023/10/13 02:52:26;;;;;;;21.45;7.53;;;;;;;;;;4997489;28;20414;-66
2023/10/13 02:54:51;;;;;;;16.90;7.78;;;;;;;;;;4996970;28;20026;-66
2023/10/13 02:57:17;;;;;;;16.25;7.30;;;;;;;;;;4997072;28;20022;-67
2023/10/13 02:59:50;;;;;;;17.75;8.00;;;;;;;;;;4997258;28;20022;-66
2023/10/13 03:02:29;;;;;;;22.38;8.60;;;;;;;;;;4996934;28;20103;-66
2023/10/13 03:05:08;;;;;;;15.15;7.50;;;;;;;;;;4997036;28;20390;-66
2023/10/13 03:07:36;;;;;;;21.60;8.10;;;;;;;;;;4997062;28;20026;-66
2023/10/13 03:10:09;;;;;;;13.57;6.60;;;;;;;;;;4996873;28;20038;-66
2023/10/13 03:12:35;;;;;;;15.38;7.68;;;;;;;;;;4996770;28;20027;-67
2023/10/13 03:15:21;;;;;;;14.80;7.38;;;;;;;;;;4996941;28;20022;-66
2023/10/13 03:17:46;;;;;;;261.35;121.13;;;;;;;;;;4996676;28;20022;-67
2023/10/13 03:20:16;;;;;;;121.68;55.10;;;;;;;;;;4996741;28;20490;-67
2023/10/13 03:22:47;;;;;;;22.65;11.75;;;;;;;;;;4996578;28;20116;-66
2023/10/13 03:25:24;;;;;;;20.20;10.63;;;;;;;;;;4996518;28;20057;-66
2023/10/13 03:30:17;;;;;;;28.10;13.57;;;;;;;;;;4996619;28;20027;-67
2023/10/13 03:32:46;;;;;;;20.60;11.63;;;;;;;;;;4996488;28;20129;-67
2023/10/13 03:35:24;;;;;;;28.35;12.68;;;;;;;;;;4995624;28;20018;-67
2023/10/13 03:37:50;;;;;;;24.15;11.35;;;;;;;;;;4996604;28;20433;-67
2023/10/13 03:45:27;;;;;;;20.55;9.82;;;;;;;;;;4996564;28;20022;-67
2023/10/13 03:47:52;;;;;;;16.70;8.40;;;;;;;;;;4996037;28;20041;-67
2023/10/13 03:50:29;;;;;;;23.90;9.70;;;;;;;;;;4996163;28;20026;-67
2023/10/13 03:52:57;;;;;;;21.40;10.32;;;;;;;;;;4996332;28;20029;-67
2023/10/13 03:55:26;;;;;;;22.88;10.32;;;;;;;;;;4996188;28;20466;-67
2023/10/13 03:57:51;;;;;;;21.05;9.43;;;;;;;;;;4995650;28;20430;-67
2023/10/13 04:00:23;;;;;;;21.77;12.33;;;;;;;;;;4995925;28;20022;-67
2023/10/13 04:02:54;;;;;;;27.38;13.52;;;;;;;;;;4996262;28;20466;-66
2023/10/13 04:05:35;;;;;;;24.27;11.75;;;;;;;;;;4995863;28;20026;-67
2023/10/13 04:21:39;;;;;;;22.42;10.88;;;;;;;;;;4995568;28;20037;-67
2023/10/13 04:24:09;;;;;;;18.50;9.50;;;;;;;;;;4995679;28;20026;-68
2023/10/13 04:26:42;;;;;;;24.50;10.85;;;;;;;;;;4995651;28;20022;-67
2023/10/13 04:29:27;;;;;;;27.98;11.10;;;;;;;;;;4995338;28;20036;-67
2023/10/13 04:32:02;;;;;;;30.15;10.35;;;;;;;;;;4995278;28;20033;-67
2023/10/13 04:34:28;;;;;;;18.23;9.60;;;;;;;;;;4995202;28;20014;-67
2023/10/13 04:37:10;;;;;;;17.05;9.18;;;;;;;;;;4995190;28;20019;-67
2023/10/13 04:39:38;;;;;;;;;;;;;;;;;;4995753;28;20474;-66
2023/10/13 04:42:13;;;;;;;23.70;8.77;;;;;;;;;;4994120;28;19960;-66
2023/10/13 04:47:09;;;;;;;18.00;9.15;;;;;;;;;;4994285;28;20026;-67
2023/10/13 04:54:54;;;;;;;17.98;7.65;;;;;;;;;;4995067;28;20080;-66
2023/10/13 05:46:48;;;;;;;18.80;10.02;;;;;;;;;;4994339;28;20081;-66
2023/10/13 06:29:39;;;;;;;18.45;9.88;;;;;;;;;;4993666;28;20080;-66
2023/10/13 06:32:10;;;;;;;20.77;9.88;;;;;;;;;;4993600;28;20022;-66
2023/10/13 06:34:44;;;;;;;16.58;9.52;;;;;;;;;;4993932;28;20054;-66
2023/10/13 06:37:22;;;;;;;12.27;8.35;;;;;;;;;;4993848;28;20525;-66
2023/10/13 06:39:51;;;;;;;18.75;9.27;;;;;;;;;;4993517;28;20038;-66
2023/10/13 06:42:18;;;;;;;20.25;9.02;;;;;;;;;;4993577;28;20471;-66
2023/10/13 06:44:46;;;;;;;17.73;9.32;;;;;;;;;;4993613;28;20026;-67
2023/10/13 06:47:12;;;;;;;15.60;8.18;;;;;;;;;;4993376;28;20097;-67
2023/10/13 06:49:39;;;;;;;22.70;8.93;;;;;;;;;;4993762;28;20105;-67
2023/10/13 06:52:06;;;;;;;18.60;8.98;;;;;;;;;;4993466;28;20391;-66
2023/10/13 06:54:33;;;;;;;14.13;8.85;;;;;;;;;;4993618;28;20426;-66
2023/10/13 06:56:58;;;;;;;17.80;8.18;;;;;;;;;;4993364;28;20085;-66
2023/10/13 06:59:26;;;;;;;19.80;8.30;;;;;;;;;;4993341;28;20018;-66
2023/10/13 07:01:52;;;;;;;20.08;8.50;;;;;;;;;;4993300;28;20253;-66
2023/10/13 07:04:17;;;;;;;13.85;8.10;;;;;;;;;;4993629;28;20065;-67
2023/10/13 07:06:49;;;;;;;14.50;8.37;;;;;;;;;;4993268;28;20093;-66
2023/10/13 07:10:06;;;;;;;18.25;9.63;;;;;;;;;;4994250;28;20045;-66
2023/10/13 07:12:06;;;;;;;17.17;8.52;;;;;;;;;;4989532;28;20054;-67
2023/10/13 07:14:33;;;;;;;14.15;8.27;;;;;;;;;;4996838;28;20029;-67
2023/10/13 07:17:02;;;;;;;15.70;8.23;;;;;;;;;;4997032;28;20482;-67
2023/10/13 07:19:28;;;;;;;19.85;7.72;;;;;;;;;;4996733;28;20489;-67
2023/10/13 07:21:58;;;;;;;12.50;7.13;;;;;;;;;;4996652;28;20022;-67
2023/10/13 07:24:24;;;;;;;18.73;7.25;;;;;;;;;;4996827;28;20382;-67
2023/10/13 07:26:57;;;;;;;11.25;6.43;;;;;;;;;;4996515;28;20490;-67
2023/10/13 07:29:24;;;;;;;16.27;6.95;;;;;;;;;;4996796;28;20029;-67
2023/10/13 07:31:50;;;;;;;15.82;6.65;;;;;;;;;;4996732;28;20056;-67
2023/10/13 07:34:26;;;;;;;14.60;6.40;;;;;;;;;;4996746;28;20453;-67
2023/10/13 07:36:59;;;;;;;14.52;6.75;;;;;;;;;;4996339;28;20042;-67
2023/10/13 07:39:25;;;;;;;12.18;6.60;;;;;;;;;;4996343;28;20018;-67
2023/10/13 07:41:53;;;;;;;14.27;6.15;;;;;;;;;;4996353;28;20356;-67
2023/10/13 07:44:24;;;;;;;17.10;5.85;;;;;;;;;;4996497;28;20022;-67
2023/10/13 07:46:58;;;;;;;14.77;6.50;;;;;;;;;;4996242;28;20026;-67
2023/10/13 07:49:24;;;;;;;16.38;6.10;;;;;;;;;;4996426;28;20022;-67
2023/10/13 07:51:51;;;;;;;15.77;6.28;;;;;;;;;;4996061;28;20496;-67
2023/10/13 07:54:21;;;;;;;13.82;6.28;;;;;;;;;;4996271;28;20522;-67
2023/10/13 07:56:47;;;;;;;10.75;5.60;;;;;;;;;;4996299;28;20370;-67
2023/10/13 07:59:13;;;;;;;9.77;5.57;;;;;;;;;;4995959;28;20022;-67
2023/10/13 08:01:42;;;;;;;12.10;5.20;;;;;;;;;;4995921;28;20657;-67
2023/10/13 08:06:36;;;;;;;10.85;6.32;;;;;;;;;;4995841;28;20024;-67
2023/10/13 08:09:08;;;;;;;11.10;5.97;;;;;;;;;;4995945;28;20026;-67
2023/10/13 08:11:34;;;;;;;;;;;;;;;;;;4996018;28;20569;-67
2023/10/13 08:14:17;;;;;;;12.57;5.43;;;;;;;;;;4995950;28;20385;-67
2023/10/13 08:16:49;;;;;;;8.95;5.97;;;;;;;;;;4995584;28;20054;-67
2023/10/13 08:19:15;;;;;;;9.48;5.50;;;;;;;;;;4995895;28;20077;-67
2023/10/13 08:21:48;;;;;;;9.05;5.88;;;;;;;;;;4995312;28;20109;-67
2023/10/13 08:24:15;;;;;;;9.20;5.30;;;;;;;;;;4995818;28;20486;-67
2023/10/13 08:29:49;;;;;;;15.90;5.60;;;;;;;;;;4979732;28;20039;-67
2023/10/13 08:32:14;;;;;;;8.65;4.93;;;;;;;;;;4995377;28;20252;-67
2023/10/13 08:34:59;;;;;;;14.98;5.80;;;;;;;;;;4995525;28;20021;-67
2023/10/13 08:37:29;;;;;;;9.20;5.05;;;;;;;;;;4995320;28;20014;-67
2023/10/13 08:56:15;;;;;;;9.82;5.20;;;;;;;;;;4986455;28;20039;-67
2023/10/13 09:09:36;;;;;;;9.95;4.63;;;;;;;;;;4994520;28;20033;-67
2023/10/13 09:12:09;;;;;;;21.80;5.10;;;;;;;;;;4994658;28;20034;-67
2023/10/13 09:14:44;;;;;;;13.63;5.15;;;;;;;;;;4993733;28;20019;-67
2023/10/13 09:17:34;;;;;;;16.55;5.45;;;;;;;;;;4994736;28;20026;-67
2023/10/13 09:25:34;;;;;;;7.15;4.05;;;;;;;;;;4994644;28;20054;-67
2023/10/13 09:28:00;;;;;;;13.65;4.88;;;;;;;;;;4994199;28;20026;-67
2023/10/13 09:30:28;;;;;;;13.77;4.20;;;;;;;;;;4994341;28;20095;-67
2023/10/13 09:33:08;;;;;;;12.27;4.88;;;;;;;;;;4993664;28;20142;-67
2023/10/13 09:35:37;;;;;;;7.85;3.97;;;;;;;;;;4994525;28;20382;-67
2023/10/13 09:38:02;;;;;;;8.38;4.30;;;;;;;;;;4994462;28;20453;-67
2023/10/13 09:40:46;;;;;;;6.70;4.03;;;;;;;;;;4994415;28;20053;-67
2023/10/13 09:43:15;;;;;;;10.60;4.35;;;;;;;;;;4994379;28;20026;-67
2023/10/13 09:45:43;;;;;;;12.10;4.50;;;;;;;;;;4994088;28;20037;-67
2023/10/13 09:48:21;;;;;;;16.85;5.10;;;;;;;;;;4993993;28;20046;-67
2023/10/13 09:50:48;;;;;;;7.93;4.05;;;;;;;;;;4994297;28;20076;-67
2023/10/13 09:53:14;;;;;;;9.55;4.25;;;;;;;;;;4994348;28;20018;-66
2023/10/13 09:55:49;;;;;;;8.57;4.50;;;;;;;;;;4993932;28;20105;-66
2023/10/13 09:58:18;;;;;;;12.30;4.38;;;;;;;;;;4993993;28;20026;-66
2023/10/13 10:03:15;;;;;;;12.80;4.67;;;;;;;;;;4994189;28;20065;-66
2023/10/13 10:05:59;;;;;;;16.58;4.43;;;;;;;;;;4994145;28;20106;-66
2023/10/13 10:08:34;;;;;;;9.00;4.70;;;;;;;;;;4993738;28;20030;-66
2023/10/13 10:11:18;;;;;;;10.15;4.32;;;;;;;;;;4993797;28;20066;-66
2023/10/13 10:13:57;;;;;;;8.95;4.78;;;;;;;;;;4993768;28;20066;-66
2023/10/13 10:16:28;;;;;;;15.35;4.72;;;;;;;;;;4992030;28;20018;-66
2023/10/13 10:19:01;;;;;;;7.82;4.45;;;;;;;;;;4993286;28;20022;-66
2023/10/13 10:21:36;;;;;;;13.25;4.22;;;;;;;;;;4993190;28;20026;-77
2023/10/13 10:24:13;;;;;;;15.93;4.38;;;;;;;;;;4992931;28;20382;-77
2023/10/13 10:26:38;;;;;;;9.23;4.60;;;;;;;;;;4993328;28;20018;-77
2023/10/13 10:29:10;;;;;;;14.65;4.78;;;;;;;;;;4993145;28;20374;-76
2023/10/13 10:31:44;;;;;;;6.43;4.10;;;;;;;;;;4984699;28;20019;-77
2023/10/13 10:34:13;;;;;;;14.73;4.65;;;;;;;;;;4993324;28;20410;-79
2023/10/13 10:36:42;;;;;;;10.95;4.03;;;;;;;;;;4991314;28;20022;-76
2023/10/13 10:39:09;;;;;;;15.90;5.28;;;;;;;;;;4976238;28;20030;-76
2023/10/13 10:47:01;;;;;;;13.02;4.38;;;;;;;;;;4985711;28;20033;-76
2023/10/13 10:49:29;;;;;;;15.38;4.47;;;;;;;;;;4989886;28;20034;-76
2023/10/13 10:52:01;;;;;;;16.83;4.53;;;;;;;;;;4992928;28;20069;-76
2023/10/13 10:54:31;;;;;;;8.20;4.22;;;;;;;;;;4996222;28;20026;-76
2023/10/13 10:56:56;;;;;;;12.13;4.05;;;;;;;;;;4988640;28;20118;-76
2023/10/13 10:59:25;;;;;;;10.27;4.18;;;;;;;;;;4996573;28;20093;-76
2023/10/13 11:01:53;;;;;;;6.70;3.58;;;;;;;;;;4996143;28;20042;-77
2023/10/13 11:04:24;;;;;;;9.32;3.78;;;;;;;;;;4996158;28;20022;-76
2023/10/13 11:07:09;;;;;;;8.87;4.50;;;;;;;;;;4995442;28;20015;-76
2023/10/13 11:12:22;;;;;;;9.77;3.78;;;;;;;;;;4988173;28;20125;-76
2023/10/13 11:14:48;;;;;;;8.45;3.80;;;;;;;;;;4995681;28;20026;-75
2023/10/13 11:20:16;;;;;;;13.85;3.47;;;;;;;;;;4986973;28;20074;-75
2023/10/13 11:22:46;;;;;;;9.43;4.68;;;;;;;;;;4992482;28;20018;-75
2023/10/13 11:25:19;;;;;;;9.77;3.75;;;;;;;;;;4992123;28;20109;-75
2023/10/13 11:30:19;;;;;;;7.35;4.45;;;;;;;;;;4996736;28;20101;-74
2023/10/13 11:32:45;;;;;;;9.10;4.53;;;;;;;;;;4994002;28;20026;-67
2023/10/13 11:35:28;;;;;;;14.55;3.75;;;;;;;;;;4996521;28;20471;-67
2023/10/13 11:40:43;;;;;;;10.23;3.50;;;;;;;;;;4996497;28;20037;-67
2023/10/13 11:43:15;;;;;;;8.15;3.67;;;;;;;;;;4996516;28;20485;-67
2023/10/13 11:48:42;;;;;;;8.57;4.07;;;;;;;;;;4955120;29;20019;-67
2023/10/13 11:51:08;;;;;;;8.88;4.03;;;;;;;;;;4987768;28;20383;-67
2023/10/13 11:53:34;;;;;;;10.80;3.93;;;;;;;;;;4996286;28;20021;-67
2023/10/13 11:55:59;;;;;;;8.52;3.72;;;;;;;;;;4995253;28;20010;-67
2023/10/13 11:58:25;;;;;;;8.68;4.25;;;;;;;;;;4995968;28;20038;-67
2023/10/13 12:01:01;;;;;;;8.40;4.20;;;;;;;;;;4995777;28;20115;-67
2023/10/13 12:08:49;;;;;;;12.02;3.40;;;;;;;;;;4996068;28;20022;-67
2023/10/13 12:11:30;;;;;;;13.27;4.32;;;;;;;;;;4995582;28;20133;-67
2023/10/13 12:13:55;;;;;;;11.43;3.75;;;;;;;;;;4995809;28;20434;-67
2023/10/13 12:16:21;;;;;;;6.38;3.78;;;;;;;;;;4995956;28;20106;-67
2023/10/13 12:18:53;;;;;;;6.50;3.30;;;;;;;;;;4995887;28;20022;-67
2023/10/13 12:21:19;;;;;;;10.38;3.95;;;;;;;;;;4995566;28;20031;-67
2023/10/13 12:23:45;;;;;;;10.27;3.53;;;;;;;;;;4995773;28;20459;-67
2023/10/13 12:26:19;;;;;;;14.85;3.92;;;;;;;;;;4995494;28;20084;-68
2023/10/13 12:28:51;;;;;;;7.68;3.70;;;;;;;;;;4995641;28;20587;-68
2023/10/13 12:31:17;;;;;;;9.52;3.58;;;;;;;;;;4995412;28;20018;-67
2023/10/13 12:33:43;;;;;;;11.68;3.42;;;;;;;;;;4995707;28;20022;-65
2023/10/13 12:57:23;;;;;;;9.97;3.30;;;;;;;;;;4995009;28;20054;-65
2023/10/13 12:59:48;;;;;;;18.35;3.53;;;;;;;;;;4995126;28;20058;-65
2023/10/13 13:02:16;;;;;;;12.30;3.17;;;;;;;;;;4995067;28;20065;-65
2023/10/13 13:04:45;;;;;;;9.30;3.08;;;;;;;;;;4994807;28;20045;-65
2023/10/13 13:07:13;;;;;;;7.05;3.22;;;;;;;;;;4993826;28;20026;-65
2023/10/13 13:09:42;;;;;;;9.75;3.72;;;;;;;;;;4994524;28;20061;-65
2023/10/13 13:12:07;;;;;;;9.48;3.72;;;;;;;;;;4994725;28;20018;-65
2023/10/13 13:14:34;;;;;;;8.63;3.28;;;;;;;;;;4994688;28;20499;-65
2023/10/13 13:17:04;;;;;;;11.88;3.00;;;;;;;;;;4994480;28;20019;-65
2023/10/13 13:19:41;;;;;;;7.95;3.05;;;;;;;;;;4994798;28;20052;-65
2023/10/13 13:22:13;;;;;;;14.60;3.20;;;;;;;;;;4994719;28;20382;-65
2023/10/13 13:24:43;;;;;;;11.05;3.15;;;;;;;;;;4994712;28;20471;-65
2023/10/13 13:27:08;;;;;;;6.00;2.97;;;;;;;;;;4994542;28;20092;-65
2023/10/13 13:29:37;;;;;;;8.27;3.13;;;;;;;;;;4994379;28;20482;-65
2023/10/13 13:32:05;;;;;;;5.75;2.75;;;;;;;;;;4994348;28;20525;-65
2023/10/13 13:34:30;;;;;;;8.38;3.17;;;;;;;;;;4994503;28;20061;-65
2023/10/13 13:37:00;;;;;;;9.05;2.95;;;;;;;;;;4994513;28;20026;-65
2023/10/13 13:39:30;;;;;;;10.40;2.95;;;;;;;;;;4994489;28;20018;-65
2023/10/13 13:41:58;;;;;;;10.35;2.85;;;;;;;;;;4994248;28;20022;-65
2023/10/13 13:44:35;;;;;;;6.03;2.63;;;;;;;;;;4994215;28;20471;-65
2023/10/13 13:47:00;;;;;;;5.95;2.40;;;;;;;;;;4994273;28;20489;-65
2023/10/13 13:49:30;;;;;;;11.43;2.90;;;;;;;;;;4994121;28;20014;-65
2023/10/13 13:51:56;;;;;;;7.80;2.90;;;;;;;;;;4994298;28;20475;-65
2023/10/13 13:54:21;;;;;;;8.05;2.85;;;;;;;;;;4993939;28;20030;-65
2023/10/13 13:56:47;;;;;;;10.13;3.77;;;;;;;;;;4994008;28;20041;-65
2023/10/13 13:59:15;;;;;;;7.93;2.63;;;;;;;;;;4993936;28;20018;-65
2023/10/13 14:01:44;;;;;;;12.18;2.55;;;;;;;;;;4994209;28;20093;-65
2023/10/13 14:04:09;;;;;;;31.52;3.55;;;;;;;;;;4994119;28;20085;-65
2023/10/13 14:06:34;;;;;;;8.88;2.97;;;;;;;;;;4993983;28;20026;-65
2023/10/13 14:09:02;;;;;;;14.70;2.85;;;;;;;;;;4993879;28;20395;-64
2023/10/13 14:16:50;;;;;;;8.18;2.53;;;;;;;;;;4994116;28;20109;-65
2023/10/13 14:19:28;;;;;;;9.57;2.92;;;;;;;;;;4996224;28;20061;-65
2023/10/13 14:21:56;;;;;;;10.48;2.67;;;;;;;;;;4997799;28;20134;-65
2023/10/13 14:24:28;;;;;;;8.98;2.22;;;;;;;;;;4997735;28;20023;-65
2023/10/13 14:27:02;;;;;;;15.75;2.72;;;;;;;;;;4997656;28;20113;-65
2023/10/13 14:29:27;;;;;;;15.13;3.28;;;;;;;;;;4997917;28;20390;-65
2023/10/13 14:31:52;;;;;;;6.83;2.77;;;;;;;;;;4997635;28;20018;-65
2023/10/13 14:34:17;;;;;;;24.73;3.45;;;;;;;;;;4997585;28;20010;-65
2023/10/13 14:36:48;;;;;;;12.80;2.70;;;;;;;;;;4997536;28;20022;-65
2023/10/13 14:39:13;;;;;;;20.15;3.10;;;;;;;;;;4997752;28;20276;-65
2023/10/13 14:41:38;;;;;;;13.10;2.50;;;;;;;;;;4997498;28;20498;-65
2023/10/13 14:44:07;;;;;;;5.57;2.53;;;;;;;;;;4997346;28;20023;-65
2023/10/13 14:46:35;;;;;;;9.90;2.80;;;;;;;;;;4997621;28;20255;-65
2023/10/13 14:49:02;;;;;;;13.73;2.90;;;;;;;;;;4997181;28;20030;-64
2023/10/13 14:51:28;;;;;;;9.30;2.80;;;;;;;;;;4997410;28;20015;-65
2023/10/13 14:53:56;;;;;;;6.28;2.40;;;;;;;;;;4997215;28;20019;-67
2023/10/13 14:56:25;;;;;;;25.52;2.78;;;;;;;;;;4997406;28;20509;-67
2023/10/13 14:58:50;;;;;;;6.32;2.38;;;;;;;;;;4997427;28;20026;-67
2023/10/13 15:01:16;;;;;;;9.77;2.30;;;;;;;;;;4997344;28;20399;-67
2023/10/13 15:03:47;;;;;;;5.97;2.60;;;;;;;;;;4997055;28;20033;-67
2023/10/13 15:06:20;;;;;;;8.48;2.40;;;;;;;;;;4997014;28;20030;-67
2023/10/13 15:08:46;;;;;;;7.03;2.17;;;;;;;;;;4996863;28;20022;-67
2023/10/13 15:11:14;;;;;;;7.50;2.25;;;;;;;;;;4996833;28;20054;-67
2023/10/13 15:13:40;;;;;;;5.75;1.90;;;;;;;;;;4996928;28;20098;-67
2023/10/13 15:16:16;;;;;;;5.15;2.30;;;;;;;;;;4997063;28;20018;-67
2023/10/13 15:18:42;;;;;;;8.60;2.33;;;;;;;;;;4997028;28;20409;-67
2023/10/13 15:21:08;;;;;;;7.68;2.40;;;;;;;;;;4996670;28;20026;-67
2023/10/13 15:23:42;;;;;;;8.73;2.50;;;;;;;;;;4996728;28;20145;-67
2023/10/13 15:26:09;;;;;;;5.05;2.40;;;;;;;;;;4996917;28;20026;-67
2023/10/13 15:28:37;;;;;;;7.35;3.10;;;;;;;;;;4996452;28;20034;-67
2023/10/13 15:31:10;;;;;;;5.80;2.47;;;;;;;;;;4995813;28;20030;-67
2023/10/13 15:33:35;;;;;;;6.32;2.53;;;;;;;;;;4996468;28;20057;-67
2023/10/13 15:36:00;;;;;;;8.25;2.65;;;;;;;;;;4996749;28;20058;-67
2023/10/13 15:38:28;;;;;;;4.77;2.10;;;;;;;;;;4996380;28;20026;-67
2023/10/13 15:40:54;;;;;;;6.30;2.20;;;;;;;;;;4996283;28;20287;-67
2023/10/13 15:43:19;;;;;;;7.13;2.47;;;;;;;;;;4996283;28;20033;-67
2023/10/13 15:45:45;;;;;;;6.90;2.10;;;;;;;;;;4996299;28;20026;-67
2023/10/13 15:48:11;;;;;;;8.25;2.70;;;;;;;;;;4996423;28;20034;-67
2023/10/13 15:50:40;;;;;;;9.05;2.08;;;;;;;;;;4996168;28;20382;-67
2023/10/13 15:53:06;;;;;;;6.30;2.25;;;;;;;;;;4996439;28;20463;-67
2023/10/13 15:55:34;;;;;;;4.60;2.03;;;;;;;;;;4996294;28;20438;-67
2023/10/13 15:58:00;;;;;;;7.10;2.72;;;;;;;;;;4996064;28;20033;-67
2023/10/13 16:00:25;;;;;;;6.47;2.43;;;;;;;;;;4996023;28;20030;-67
2023/10/13 16:02:54;;;;;;;6.50;2.70;;;;;;;;;;4996346;28;20041;-67
2023/10/13 16:05:22;;;;;;;4.65;2.35;;;;;;;;;;4995966;28;20022;-67
2023/10/13 16:07:48;;;;;;;6.63;2.13;;;;;;;;;;4996027;28;20027;-67
2023/10/13 16:10:13;;;;;;;9.02;2.78;;;;;;;;;;4995687;28;20376;-67
2023/10/13 16:12:38;;;;;;;7.25;2.20;;;;;;;;;;4996076;28;20089;-67
2023/10/13 16:15:08;;;;;;;6.23;2.53;;;;;;;;;;4995776;28;20446;-67
2023/10/13 16:17:33;;;;;;;4.82;2.40;;;;;;;;;;4995928;28;20303;-67
2023/10/13 16:19:58;;;;;;;9.80;2.20;;;;;;;;;;4995731;28;20022;-67
2023/10/13 16:22:23;;;;;;;5.93;2.20;;;;;;;;;;4995614;28;20084;-67
2023/10/13 16:24:48;;;;;;;5.93;2.57;;;;;;;;;;4995562;28;20252;-67
2023/10/13 16:27:14;;;;;;;6.63;2.50;;;;;;;;;;4995414;28;20256;-67
2023/10/13 16:29:42;;;;;;;6.30;2.40;;;;;;;;;;4995481;28;20015;-67
2023/10/13 16:32:08;;;;;;;7.15;2.45;;;;;;;;;;4995800;28;20509;-67
2023/10/13 16:34:34;;;;;;;5.88;2.67;;;;;;;;;;4995623;28;20022;-67
2023/10/13 16:37:04;;;;;;;8.38;2.90;;;;;;;;;;4995404;28;20023;-67
2023/10/13 16:39:30;;;;;;;4.60;2.15;;;;;;;;;;4995379;28;20390;-67
2023/10/13 16:41:55;;;;;;;4.13;2.53;;;;;;;;;;4995121;28;20023;-67
2023/10/13 16:44:26;;;;;;;6.85;2.42;;;;;;;;;;4995158;28;20026;-67
2023/10/13 16:46:56;;;;;;;7.55;2.53;;;;;;;;;;4995425;28;20033;-67
2023/10/13 16:49:21;;;;;;;8.30;2.63;;;;;;;;;;4995313;28;20598;-67
2023/10/13 16:51:47;;;;;;;7.53;2.45;;;;;;;;;;4995029;28;20034;-67
2023/10/13 16:54:12;;;;;;;3.87;1.90;;;;;;;;;;4994917;28;20025;-67
2023/10/13 16:56:38;;;;;;;8.50;2.60;;;;;;;;;;4995184;28;20089;-67
2023/10/13 16:59:07;;;;;;;6.85;2.65;;;;;;;;;;4995193;28;20302;-67
2023/10/13 17:01:32;;;;;;;8.07;2.42;;;;;;;;;;4994912;28;20437;-67
2023/10/13 17:03:58;;;;;;;9.40;2.40;;;;;;;;;;4995044;28;20053;-67
2023/10/13 17:06:23;;;;;;;6.85;2.25;;;;;;;;;;4994762;28;20041;-67
2023/10/13 17:08:48;;;;;;;5.43;2.28;;;;;;;;;;4994651;28;20026;-67
2023/10/13 17:11:13;;;;;;;6.72;2.22;;;;;;;;;;4994546;28;20038;-67
2023/10/13 17:13:40;;;;;;;7.57;2.10;;;;;;;;;;4994807;28;20022;-65
2023/10/13 17:16:17;;;;;;;4.22;2.05;;;;;;;;;;4994836;28;20494;-65
2023/10/13 17:18:43;;;;;;;5.50;2.33;;;;;;;;;;4994530;28;20037;-65
2023/10/13 17:21:17;;;;;;;9.10;2.80;;;;;;;;;;4993621;28;20105;-65
2023/10/13 17:23:42;;;;;;;5.32;2.17;;;;;;;;;;4993361;28;20076;-65
2023/10/13 17:26:11;;;;;;;4.53;2.35;;;;;;;;;;4994134;28;20109;-64
2023/10/13 17:28:36;;;;;;;5.72;1.80;;;;;;;;;;4993611;28;20045;-65
2023/10/13 17:31:01;;;;;;;6.43;2.50;;;;;;;;;;4983272;28;20467;-65
2023/10/13 17:33:27;;;;;;;4.77;2.17;;;;;;;;;;4991634;28;20018;-65
2023/10/13 17:35:52;;;;;;;15.80;2.72;;;;;;;;;;4989810;28;20266;-65
2023/10/13 17:38:18;;;;;;;4.82;1.95;;;;;;;;;;4987570;28;20109;-65
2023/10/13 17:40:43;;;;;;;5.57;2.60;;;;;;;;;;4987331;28;20135;-65
2023/10/13 17:43:08;;;;;;;4.37;2.53;;;;;;;;;;4992910;28;20022;-65
2023/10/13 17:45:36;;;;;;;4.07;2.07;;;;;;;;;;4990340;28;20782;-65
2023/10/13 17:48:01;;;;;;;7.75;2.60;;;;;;;;;;4988518;28;20284;-64
2023/10/13 17:50:28;;;;;;;3.97;1.93;;;;;;;;;;4992818;28;20038;-65
2023/10/13 17:52:53;;;;;;;5.68;2.47;;;;;;;;;;4992578;28;20355;-65
2023/10/13 17:55:18;;;;;;;4.75;2.20;;;;;;;;;;4992872;28;20097;-65
2023/10/13 17:57:47;;;;;;;6.57;2.47;;;;;;;;;;4992886;28;20030;-65
2023/10/13 18:00:15;;;;;;;5.90;2.58;;;;;;;;;;4991894;28;20031;-65
2023/10/13 18:02:42;;;;;;;7.18;2.72;;;;;;;;;;4993210;28;20049;-65
2023/10/13 18:05:11;;;;;;;4.65;2.60;;;;;;;;;;4993511;28;20026;-65
2023/10/13 18:07:37;;;;;;;5.75;2.50;;;;;;;;;;4995829;28;20084;-64
2023/10/13 18:10:02;;;;;;;9.00;2.28;;;;;;;;;;4993048;28;20448;-65
2023/10/13 18:12:28;;;;;;;6.75;2.80;;;;;;;;;;4992607;28;20109;-65
2023/10/13 18:14:56;;;;;;;5.50;2.72;;;;;;;;;;4992476;28;20027;-65
2023/10/13 18:17:22;;;;;;;5.20;2.50;;;;;;;;;;4984965;28;20069;-65
2023/10/13 18:19:47;;;;;;;3.90;2.53;;;;;;;;;;4993008;28;20019;-65